sensor_id;sensor_type;location;lat;lon;timestamp;pressure;altitude;pressure_sealevel;temperature;humidity
56052;BME280;41919;42.648;23.384;2023-03-03T00:01:18;94633.94;;;3.53;100.00
56052;BME280;41919;42.648;23.384;2023-03-03T00:03:43;94611.13;;;3.48;100.00
56052;BME280;41919;42.648;23.384;2023-03-03T00:06:11;94558.47;;;3.25;100.00
56052;BME280;41919;42.648;23.384;2023-03-03T00:08:38;94635.44;;;3.80;100.00
56052;BME280;41919;42.648;23.384;2023-03-03T00:11:04;94557.88;;;3.47;100.00
56052;BME280;41919;42.648;23.384;2023-03-03T00:13:32;94626.72;;;3.98;100.00
56052;BME280;41919;42.648;23.384;2023-03-03T00:16:27;94632.19;;;3.95;100.00
56052;BME280;41919;42.648;23.384;2023-03-03T00:18:55;94595.34;;;3.68;100.00
56052;BME280;41919;42.648;23.384;2023-03-03T00:23:46;94615.22;;;3.76;100.00
56052;BME280;41919;42.648;23.384;2023-03-03T00:26:20;94524.38;;;3.13;100.00
56052;BME280;41919;42.648;23.384;2023-03-03T00:28:49;94517.09;;;3.08;100.00
56052;BME280;41919;42.648;23.384;2023-03-03T00:31:28;94621.53;;;3.73;100.00
56052;BME280;41919;42.648;23.384;2023-03-03T00:33:58;94570.94;;;3.38;100.00
56052;BME280;41919;42.648;23.384;2023-03-03T00:36:35;94617.34;;;3.80;100.00
56052;BME280;41919;42.648;23.384;2023-03-03T00:41:45;94596.31;;;3.75;100.00
56052;BME280;41919;42.648;23.384;2023-03-03T00:46:51;94521.50;;;3.32;100.00
56052;BME280;41919;42.648;23.384;2023-03-03T00:49:23;94529.09;;;3.42;100.00
56052;BME280;41919;42.648;23.384;2023-03-03T00:51:51;94572.41;;;3.81;100.00
56052;BME280;41919;42.648;23.384;2023-03-03T00:54:17;94576.44;;;3.92;100.00
56052;BME280;41919;42.648;23.384;2023-03-03T00:56:43;94459.19;;;3.19;100.00
56052;BME280;41919;42.648;23.384;2023-03-03T00:59:08;94582.75;;;4.06;100.00
56052;BME280;41919;42.648;23.384;2023-03-03T01:01:34;94509.72;;;3.54;100.00
56052;BME280;41919;42.648;23.384;2023-03-03T01:03:59;94496.97;;;3.61;100.00
56052;BME280;41919;42.648;23.384;2023-03-03T01:06:25;94577.91;;;4.03;100.00
56052;BME280;41919;42.648;23.384;2023-03-03T01:08:50;94491.66;;;3.38;100.00
56052;BME280;41919;42.648;23.384;2023-03-03T01:11:21;94568.53;;;3.77;100.00
56052;BME280;41919;42.648;23.384;2023-03-03T01:13:49;94575.31;;;3.70;100.00
56052;BME280;41919;42.648;23.384;2023-03-03T01:16:15;94555.28;;;3.56;100.00
56052;BME280;41919;42.648;23.384;2023-03-03T01:18:41;94565.28;;;3.50;100.00
56052;BME280;41919;42.648;23.384;2023-03-03T01:21:07;94489.53;;;3.09;100.00
56052;BME280;41919;42.648;23.384;2023-03-03T01:23:33;94453.47;;;2.74;100.00
56052;BME280;41919;42.648;23.384;2023-03-03T01:25:59;94550.41;;;3.36;100.00
56052;BME280;41919;42.648;23.384;2023-03-03T01:28:25;94488.97;;;2.81;100.00
56052;BME280;41919;42.648;23.384;2023-03-03T01:30:50;94535.88;;;3.27;100.00
56052;BME280;41919;42.648;23.384;2023-03-03T01:33:16;94542.31;;;3.39;100.00
56052;BME280;41919;42.648;23.384;2023-03-03T01:35:45;94537.34;;;3.38;100.00
56052;BME280;41919;42.648;23.384;2023-03-03T01:38:12;94550.41;;;3.52;100.00
56052;BME280;41919;42.648;23.384;2023-03-03T01:40:38;94551.25;;;3.53;100.00
56052;BME280;41919;42.648;23.384;2023-03-03T01:43:05;94467.88;;;3.02;100.00
56052;BME280;41919;42.648;23.384;2023-03-03T01:48:35;94547.69;;;3.62;100.00
56052;BME280;41919;42.648;23.384;2023-03-03T01:51:14;94529.75;;;3.52;100.00
56052;BME280;41919;42.648;23.384;2023-03-03T01:53:47;94562.38;;;3.70;100.00
56052;BME280;41919;42.648;23.384;2023-03-03T01:56:14;94547.22;;;3.59;100.00
56052;BME280;41919;42.648;23.384;2023-03-03T01:58:52;94549.63;;;3.68;100.00
56052;BME280;41919;42.648;23.384;2023-03-03T02:01:22;94526.53;;;3.59;100.00
56052;BME280;41919;42.648;23.384;2023-03-03T02:03:49;94539.78;;;3.56;100.00
56052;BME280;41919;42.648;23.384;2023-03-03T02:06:18;94469.66;;;3.09;100.00
56052;BME280;41919;42.648;23.384;2023-03-03T02:08:50;94488.72;;;3.25;100.00
56052;BME280;41919;42.648;23.384;2023-03-03T02:11:18;94539.47;;;3.59;100.00
56052;BME280;41919;42.648;23.384;2023-03-03T02:13:45;94474.84;;;3.18;100.00
56052;BME280;41919;42.648;23.384;2023-03-03T02:16:11;94512.63;;;3.60;100.00
56052;BME280;41919;42.648;23.384;2023-03-03T02:18:36;94542.19;;;3.65;100.00
56052;BME280;41919;42.648;23.384;2023-03-03T02:26:27;94544.31;;;3.78;100.00
56052;BME280;41919;42.648;23.384;2023-03-03T02:28:53;94525.41;;;3.69;100.00
56052;BME280;41919;42.648;23.384;2023-03-03T02:31:21;94509.38;;;3.41;100.00
56052;BME280;41919;42.648;23.384;2023-03-03T02:33:50;94493.25;;;3.31;100.00
56052;BME280;41919;42.648;23.384;2023-03-03T02:36:18;94477.09;;;3.21;100.00
56052;BME280;41919;42.648;23.384;2023-03-03T02:44:29;94531.38;;;3.62;100.00
56052;BME280;41919;42.648;23.384;2023-03-03T02:46:57;94476.94;;;3.39;100.00
56052;BME280;41919;42.648;23.384;2023-03-03T02:49:28;94486.97;;;3.42;100.00
56052;BME280;41919;42.648;23.384;2023-03-03T02:51:55;94551.09;;;3.63;100.00
56052;BME280;41919;42.648;23.384;2023-03-03T02:54:22;94491.31;;;3.25;100.00
56052;BME280;41919;42.648;23.384;2023-03-03T02:56:48;94533.63;;;3.48;100.00
56052;BME280;41919;42.648;23.384;2023-03-03T02:59:14;94462.03;;;2.91;100.00
56052;BME280;41919;42.648;23.384;2023-03-03T03:01:40;94456.72;;;2.93;100.00
56052;BME280;41919;42.648;23.384;2023-03-03T03:04:08;94535.56;;;3.46;100.00
56052;BME280;41919;42.648;23.384;2023-03-03T03:06:34;94534.91;;;3.52;100.00
56052;BME280;41919;42.648;23.384;2023-03-03T03:08:59;94520.41;;;3.43;100.00
56052;BME280;41919;42.648;23.384;2023-03-03T03:11:25;94539.94;;;3.38;100.00
56052;BME280;41919;42.648;23.384;2023-03-03T03:13:51;94518.44;;;3.29;100.00
56052;BME280;41919;42.648;23.384;2023-03-03T03:16:17;94521.34;;;3.34;100.00
56052;BME280;41919;42.648;23.384;2023-03-03T03:18:43;94534.59;;;3.56;100.00
56052;BME280;41919;42.648;23.384;2023-03-03T03:21:11;94518.13;;;3.48;100.00
56052;BME280;41919;42.648;23.384;2023-03-03T03:23:38;94525.56;;;3.51;100.00
56052;BME280;41919;42.648;23.384;2023-03-03T03:26:04;94513.44;;;3.52;100.00
56052;BME280;41919;42.648;23.384;2023-03-03T03:28:30;94544.63;;;3.67;100.00
56052;BME280;41919;42.648;23.384;2023-03-03T03:30:55;94531.38;;;3.70;100.00
56052;BME280;41919;42.648;23.384;2023-03-03T03:33:21;94535.25;;;3.82;100.00
56052;BME280;41919;42.648;23.384;2023-03-03T03:35:47;94459.03;;;3.29;100.00
56052;BME280;41919;42.648;23.384;2023-03-03T03:38:13;94531.38;;;3.70;100.00
56052;BME280;41919;42.648;23.384;2023-03-03T03:40:39;94435.72;;;2.80;100.00
56052;BME280;41919;42.648;23.384;2023-03-03T03:43:05;94499.84;;;3.25;100.00
56052;BME280;41919;42.648;23.384;2023-03-03T03:45:31;94525.38;;;3.45;100.00
56052;BME280;41919;42.648;23.384;2023-03-03T03:47:56;94502.63;;;3.32;100.00
56052;BME280;41919;42.648;23.384;2023-03-03T03:50:22;94408.63;;;2.67;100.00
56052;BME280;41919;42.648;23.384;2023-03-03T03:52:47;94510.69;;;3.53;100.00
56052;BME280;41919;42.648;23.384;2023-03-03T03:55:13;94514.88;;;3.46;100.00
56052;BME280;41919;42.648;23.384;2023-03-03T03:57:39;94513.28;;;3.62;100.00
56052;BME280;41919;42.648;23.384;2023-03-03T04:00:06;94490.19;;;3.60;100.00
56052;BME280;41919;42.648;23.384;2023-03-03T04:02:33;94500.84;;;3.49;100.00
56052;BME280;41919;42.648;23.384;2023-03-03T04:04:58;94492.59;;;3.29;100.00
56052;BME280;41919;42.648;23.384;2023-03-03T04:07:24;94446.75;;;3.06;100.00
56052;BME280;41919;42.648;23.384;2023-03-03T04:09:49;94431.59;;;3.03;100.00
56052;BME280;41919;42.648;23.384;2023-03-03T04:12:15;94486.16;;;3.33;100.00
56052;BME280;41919;42.648;23.384;2023-03-03T04:14:40;94503.28;;;3.34;100.00
56052;BME280;41919;42.648;23.384;2023-03-03T04:17:06;94375.88;;;2.51;100.00
56052;BME280;41919;42.648;23.384;2023-03-03T04:19:31;94508.09;;;3.29;100.00
56052;BME280;41919;42.648;23.384;2023-03-03T04:21:56;94447.84;;;2.87;100.00
56052;BME280;41919;42.648;23.384;2023-03-03T04:24:22;94498.72;;;3.28;100.00
56052;BME280;41919;42.648;23.384;2023-03-03T04:26:47;94427.69;;;2.99;100.00
56052;BME280;41919;42.648;23.384;2023-03-03T04:29:13;94449.31;;;2.98;100.00
56052;BME280;41919;42.648;23.384;2023-03-03T04:31:38;94505.19;;;3.24;100.00
56052;BME280;41919;42.648;23.384;2023-03-03T04:34:03;94490.31;;;3.09;100.00
56052;BME280;41919;42.648;23.384;2023-03-03T04:36:29;94480.97;;;3.17;100.00
56052;BME280;41919;42.648;23.384;2023-03-03T04:38:54;94427.97;;;2.80;100.00
56052;BME280;41919;42.648;23.384;2023-03-03T04:41:20;94497.13;;;3.27;100.00
56052;BME280;41919;42.648;23.384;2023-03-03T04:43:45;94495.81;;;3.39;100.00
56052;BME280;41919;42.648;23.384;2023-03-03T04:46:11;94497.13;;;3.51;100.00
56052;BME280;41919;42.648;23.384;2023-03-03T04:48:36;94425.91;;;3.16;100.00
56052;BME280;41919;42.648;23.384;2023-03-03T04:51:03;94430.59;;;3.37;100.00
56052;BME280;41919;42.648;23.384;2023-03-03T04:53:28;94505.50;;;3.95;100.00
56052;BME280;41919;42.648;23.384;2023-03-03T04:55:54;94493.06;;;3.98;100.00
56052;BME280;41919;42.648;23.384;2023-03-03T04:58:20;94470.94;;;3.87;100.00
56052;BME280;41919;42.648;23.384;2023-03-03T05:00:55;94463.16;;;3.96;100.00
56052;BME280;41919;42.648;23.384;2023-03-03T05:03:21;94504.78;;;4.25;100.00
56052;BME280;41919;42.648;23.384;2023-03-03T05:05:47;94501.31;;;3.93;100.00
56052;BME280;41919;42.648;23.384;2023-03-03T05:08:13;94486.47;;;3.71;100.00
56052;BME280;41919;42.648;23.384;2023-03-03T05:10:38;94480.03;;;3.59;100.00
56052;BME280;41919;42.648;23.384;2023-03-03T05:13:05;94456.78;;;3.34;100.00
56052;BME280;41919;42.648;23.384;2023-03-03T05:15:30;94516.50;;;3.64;100.00
56052;BME280;41919;42.648;23.384;2023-03-03T05:17:56;94442.56;;;3.13;100.00
56052;BME280;41919;42.648;23.384;2023-03-03T05:20:23;94511.50;;;3.62;100.00
56052;BME280;41919;42.648;23.384;2023-03-03T05:22:48;94493.56;;;3.20;100.00
56052;BME280;41919;42.648;23.384;2023-03-03T05:25:14;94457.22;;;2.97;100.00
56052;BME280;41919;42.648;23.384;2023-03-03T05:27:39;94524.88;;;3.33;100.00
56052;BME280;41919;42.648;23.384;2023-03-03T05:30:06;94521.00;;;3.29;100.00
56052;BME280;41919;42.648;23.384;2023-03-03T05:32:31;94443.16;;;2.91;100.00
56052;BME280;41919;42.648;23.384;2023-03-03T05:34:57;94471.25;;;3.02;100.00
56052;BME280;41919;42.648;23.384;2023-03-03T05:37:22;94468.69;;;2.94;100.00
56052;BME280;41919;42.648;23.384;2023-03-03T05:39:48;94477.41;;;3.09;100.00
56052;BME280;41919;42.648;23.384;2023-03-03T05:42:14;94523.94;;;3.50;100.00
56052;BME280;41919;42.648;23.384;2023-03-03T05:44:40;94513.56;;;3.18;100.00
56052;BME280;41919;42.648;23.384;2023-03-03T05:47:06;94513.41;;;3.36;100.00
56052;BME280;41919;42.648;23.384;2023-03-03T05:49:31;94519.59;;;3.51;100.00
56052;BME280;41919;42.648;23.384;2023-03-03T05:51:56;94520.56;;;3.66;100.00
56052;BME280;41919;42.648;23.384;2023-03-03T05:54:23;94528.78;;;3.78;100.00
56052;BME280;41919;42.648;23.384;2023-03-03T05:56:48;94457.09;;;3.47;100.00
56052;BME280;41919;42.648;23.384;2023-03-03T05:59:14;94522.47;;;4.05;100.00
56052;BME280;41919;42.648;23.384;2023-03-03T06:01:39;94521.28;;;4.24;100.00
56052;BME280;41919;42.648;23.384;2023-03-03T06:04:05;94448.97;;;3.83;100.00
56052;BME280;41919;42.648;23.384;2023-03-03T06:06:30;94431.50;;;3.85;100.00
56052;BME280;41919;42.648;23.384;2023-03-03T06:08:56;94449.41;;;4.03;100.00
56052;BME280;41919;42.648;23.384;2023-03-03T06:11:21;94445.31;;;4.17;100.00
56052;BME280;41919;42.648;23.384;2023-03-03T06:13:47;94525.34;;;4.75;100.00
56052;BME280;41919;42.648;23.384;2023-03-03T06:16:12;94447.56;;;4.28;100.00
56052;BME280;41919;42.648;23.384;2023-03-03T06:18:37;94533.88;;;4.83;100.00
56052;BME280;41919;42.648;23.384;2023-03-03T06:21:03;94472.34;;;4.54;100.00
56052;BME280;41919;42.648;23.384;2023-03-03T06:23:28;94538.84;;;4.93;100.00
56052;BME280;41919;42.648;23.384;2023-03-03T06:25:54;94471.16;;;4.34;100.00
56052;BME280;41919;42.648;23.384;2023-03-03T06:28:19;94465.41;;;3.99;100.00
56052;BME280;41919;42.648;23.384;2023-03-03T06:30:45;94532.22;;;4.43;100.00
56052;BME280;41919;42.648;23.384;2023-03-03T06:33:10;94529.63;;;4.51;100.00
56052;BME280;41919;42.648;23.384;2023-03-03T06:35:36;94541.25;;;4.55;100.00
56052;BME280;41919;42.648;23.384;2023-03-03T06:38:01;94459.66;;;3.80;100.00
56052;BME280;41919;42.648;23.384;2023-03-03T06:40:27;94523.53;;;4.27;100.00
56052;BME280;41919;42.648;23.384;2023-03-03T06:42:52;94463.22;;;3.71;100.00
56052;BME280;41919;42.648;23.384;2023-03-03T06:45:17;94521.78;;;4.20;100.00
56052;BME280;41919;42.648;23.384;2023-03-03T06:47:43;94420.88;;;3.80;100.00
56052;BME280;41919;42.648;23.384;2023-03-03T06:50:10;94464.06;;;4.19;100.00
56052;BME280;41919;42.648;23.384;2023-03-03T06:52:36;94529.28;;;4.62;100.00
56052;BME280;41919;42.648;23.384;2023-03-03T06:55:10;94462.56;;;4.33;100.00
56052;BME280;41919;42.648;23.384;2023-03-03T06:57:36;94529.88;;;4.72;100.00
56052;BME280;41919;42.648;23.384;2023-03-03T07:02:40;94525.88;;;5.01;100.00
56052;BME280;41919;42.648;23.384;2023-03-03T07:05:12;94475.78;;;4.86;100.00
56052;BME280;41919;42.648;23.384;2023-03-03T07:07:38;94485.22;;;5.02;100.00
56052;BME280;41919;42.648;23.384;2023-03-03T07:10:24;94541.00;;;5.44;100.00
56052;BME280;41919;42.648;23.384;2023-03-03T07:12:50;94473.06;;;5.02;100.00
56052;BME280;41919;42.648;23.384;2023-03-03T07:15:21;94544.69;;;5.49;100.00
56052;BME280;41919;42.648;23.384;2023-03-03T07:17:49;94523.53;;;5.38;100.00
56052;BME280;41919;42.648;23.384;2023-03-03T07:22:45;94521.41;;;5.41;100.00
56052;BME280;41919;42.648;23.384;2023-03-03T07:25:30;94471.09;;;5.13;100.00
56052;BME280;41919;42.648;23.384;2023-03-03T07:28:28;94539.72;;;5.63;100.00
56052;BME280;41919;42.648;23.384;2023-03-03T07:30:56;94542.31;;;5.63;98.83
56052;BME280;41919;42.648;23.384;2023-03-03T07:33:25;94540.66;;;5.70;100.00
56052;BME280;41919;42.648;23.384;2023-03-03T07:35:54;94482.78;;;5.32;99.54
56052;BME280;41919;42.648;23.384;2023-03-03T07:38:30;94480.41;;;5.22;100.00
56052;BME280;41919;42.648;23.384;2023-03-03T07:41:00;94468.66;;;5.34;100.00
56052;BME280;41919;42.648;23.384;2023-03-03T07:43:35;94481.31;;;5.52;100.00
56052;BME280;41919;42.648;23.384;2023-03-03T07:46:16;94490.19;;;5.58;96.31
56052;BME280;41919;42.648;23.384;2023-03-03T07:48:43;94528.63;;;5.77;96.60
56052;BME280;41919;42.648;23.384;2023-03-03T07:51:20;94501.72;;;5.55;96.97
56052;BME280;41919;42.648;23.384;2023-03-03T07:53:47;94472.97;;;5.19;98.10
56052;BME280;41919;42.648;23.384;2023-03-03T07:56:29;94534.00;;;5.67;99.45
56052;BME280;41919;42.648;23.384;2023-03-03T07:58:56;94523.84;;;5.66;98.61
56052;BME280;41919;42.648;23.384;2023-03-03T08:03:47;94465.72;;;5.37;99.33
56052;BME280;41919;42.648;23.384;2023-03-03T08:11:52;94533.28;;;5.59;100.00
56052;BME280;41919;42.648;23.384;2023-03-03T08:14:27;94527.47;;;5.57;100.00
56052;BME280;41919;42.648;23.384;2023-03-03T08:16:55;94461.69;;;5.11;100.00
56052;BME280;41919;42.648;23.384;2023-03-03T08:19:21;94459.09;;;5.11;100.00
56052;BME280;41919;42.648;23.384;2023-03-03T08:21:47;94526.47;;;5.58;100.00
56052;BME280;41919;42.648;23.384;2023-03-03T08:24:13;94463.56;;;4.95;100.00
56052;BME280;41919;42.648;23.384;2023-03-03T08:26:38;94450.34;;;4.89;100.00
56052;BME280;41919;42.648;23.384;2023-03-03T08:29:04;94492.75;;;5.20;100.00
56052;BME280;41919;42.648;23.384;2023-03-03T08:31:29;94464.41;;;4.95;100.00
56052;BME280;41919;42.648;23.384;2023-03-03T08:33:54;94493.25;;;5.15;100.00
56052;BME280;41919;42.648;23.384;2023-03-03T08:36:20;94519.56;;;5.27;100.00
56052;BME280;41919;42.648;23.384;2023-03-03T08:38:46;94523.09;;;5.34;100.00
56052;BME280;41919;42.648;23.384;2023-03-03T08:41:11;94477.38;;;5.18;100.00
56052;BME280;41919;42.648;23.384;2023-03-03T08:43:37;94464.25;;;5.20;100.00
56052;BME280;41919;42.648;23.384;2023-03-03T08:46:04;94467.94;;;5.25;100.00
56052;BME280;41919;42.648;23.384;2023-03-03T08:48:31;94452.59;;;5.16;100.00
56052;BME280;41919;42.648;23.384;2023-03-03T08:50:57;94444.53;;;5.10;100.00
56052;BME280;41919;42.648;23.384;2023-03-03T08:53:23;94465.28;;;5.34;100.00
56052;BME280;41919;42.648;23.384;2023-03-03T08:55:49;94520.53;;;5.72;100.00
56052;BME280;41919;42.648;23.384;2023-03-03T08:58:17;94482.63;;;5.71;100.00
56052;BME280;41919;42.648;23.384;2023-03-03T09:00:43;94448.69;;;5.58;100.00
56052;BME280;41919;42.648;23.384;2023-03-03T09:03:09;94526.28;;;6.05;98.38
56052;BME280;41919;42.648;23.384;2023-03-03T09:05:35;94462.50;;;5.73;97.41
56052;BME280;41919;42.648;23.384;2023-03-03T09:08:03;94462.97;;;5.77;98.18
56052;BME280;41919;42.648;23.384;2023-03-03T09:10:29;94513.06;;;6.15;96.72
56052;BME280;41919;42.648;23.384;2023-03-03T09:12:57;94456.50;;;5.96;94.65
56052;BME280;41919;42.648;23.384;2023-03-03T09:15:32;94523.47;;;6.45;93.84
56052;BME280;41919;42.648;23.384;2023-03-03T09:18:04;94515.97;;;6.50;93.20
56052;BME280;41919;42.648;23.384;2023-03-03T09:20:36;94509.94;;;6.35;96.99
56052;BME280;41919;42.648;23.384;2023-03-03T09:23:28;94453.00;;;6.03;91.51
56052;BME280;41919;42.648;23.384;2023-03-03T09:25:54;94463.84;;;6.07;91.07
56052;BME280;41919;42.648;23.384;2023-03-03T09:28:26;94510.66;;;6.58;92.78
56052;BME280;41919;42.648;23.384;2023-03-03T09:30:56;94514.59;;;6.39;94.03
56052;BME280;41919;42.648;23.384;2023-03-03T09:33:25;94479.63;;;6.50;92.39
56052;BME280;41919;42.648;23.384;2023-03-03T09:35:53;94503.28;;;6.92;90.67
56052;BME280;41919;42.648;23.384;2023-03-03T09:38:30;94516.25;;;7.06;88.37
56052;BME280;41919;42.648;23.384;2023-03-03T09:41:22;94514.84;;;7.25;86.15
56052;BME280;41919;42.648;23.384;2023-03-03T09:44:39;94512.31;;;7.32;86.57
56052;BME280;41919;42.648;23.384;2023-03-03T09:57:54;94503.09;;;7.94;79.25
56052;BME280;41919;42.648;23.384;2023-03-03T10:00:49;94513.47;;;8.22;78.11
56052;BME280;41919;42.648;23.384;2023-03-03T10:03:47;94498.88;;;8.21;78.01
56052;BME280;41919;42.648;23.384;2023-03-03T10:11:58;94501.44;;;7.43;82.70
56052;BME280;41919;42.648;23.384;2023-03-03T10:23:18;94489.66;;;7.26;86.17
56052;BME280;41919;42.648;23.384;2023-03-03T10:28:54;94436.03;;;6.82;87.32
56052;BME280;41919;42.648;23.384;2023-03-03T10:31:32;94494.44;;;7.07;89.54
56052;BME280;41919;42.648;23.384;2023-03-03T10:36:55;94488.69;;;7.27;90.24
56052;BME280;41919;42.648;23.384;2023-03-03T10:42:28;94478.91;;;7.29;89.17
56052;BME280;41919;42.648;23.384;2023-03-03T10:53:26;94471.03;;;7.94;83.43
56052;BME280;41919;42.648;23.384;2023-03-03T10:56:24;94406.38;;;7.62;82.73
56052;BME280;41919;42.648;23.384;2023-03-03T10:59:24;94458.78;;;7.88;84.14
56052;BME280;41919;42.648;23.384;2023-03-03T11:01:52;94470.75;;;7.82;84.73
56052;BME280;41919;42.648;23.384;2023-03-03T11:05:42;94461.50;;;8.01;84.22
56052;BME280;41919;42.648;23.384;2023-03-03T11:07:43;94398.50;;;7.77;82.59
56052;BME280;41919;42.648;23.384;2023-03-03T11:13:02;94462.00;;;8.46;81.47
56052;BME280;41919;42.648;23.384;2023-03-03T11:21:21;94442.56;;;8.49;81.05
56052;BME280;41919;42.648;23.384;2023-03-03T11:27:25;94440.91;;;8.41;81.86
56052;BME280;41919;42.648;23.384;2023-03-03T11:29:39;94439.53;;;8.45;82.61
56052;BME280;41919;42.648;23.384;2023-03-03T11:32:48;94444.16;;;8.43;81.90
56052;BME280;41919;42.648;23.384;2023-03-03T11:35:34;94431.56;;;8.18;81.27
56052;BME280;41919;42.648;23.384;2023-03-03T11:38:30;94448.56;;;8.14;82.59
56052;BME280;41919;42.648;23.384;2023-03-03T11:42:01;94446.41;;;8.24;83.56
56052;BME280;41919;42.648;23.384;2023-03-03T11:43:57;94438.03;;;8.29;83.81
56052;BME280;41919;42.648;23.384;2023-03-03T11:46:39;94368.13;;;7.84;85.39
56052;BME280;41919;42.648;23.384;2023-03-03T11:49:11;94430.84;;;8.38;85.67
56052;BME280;41919;42.648;23.384;2023-03-03T11:54:33;94439.59;;;8.58;85.39
56052;BME280;41919;42.648;23.384;2023-03-03T11:57:18;94385.78;;;8.37;85.24
56052;BME280;41919;42.648;23.384;2023-03-03T12:06:05;94429.06;;;8.80;82.97
56052;BME280;41919;42.648;23.384;2023-03-03T12:11:26;94396.75;;;8.68;82.50
56052;BME280;41919;42.648;23.384;2023-03-03T12:13:56;94431.34;;;8.96;80.72
56052;BME280;41919;42.648;23.384;2023-03-03T12:16:57;94437.34;;;8.97;81.46
56052;BME280;41919;42.648;23.384;2023-03-03T12:25:22;94429.47;;;8.77;82.16
56052;BME280;41919;42.648;23.384;2023-03-03T12:33:40;94429.59;;;8.55;85.56
56052;BME280;41919;42.648;23.384;2023-03-03T12:47:08;94432.59;;;8.59;83.37
56052;BME280;41919;42.648;23.384;2023-03-03T12:52:35;94439.59;;;8.58;83.31
56052;BME280;41919;42.648;23.384;2023-03-03T12:55:10;94435.25;;;8.66;82.69
56052;BME280;41919;42.648;23.384;2023-03-03T13:02:56;94364.75;;;7.91;87.55
56052;BME280;41919;42.648;23.384;2023-03-03T13:05:50;94420.84;;;8.35;87.54
56052;BME280;41919;42.648;23.384;2023-03-03T13:08:51;94430.00;;;8.24;88.38
56052;BME280;41919;42.648;23.384;2023-03-03T13:16:38;94407.78;;;7.93;89.17
56052;BME280;41919;42.648;23.384;2023-03-03T13:19:14;94407.16;;;7.84;90.18
56052;BME280;41919;42.648;23.384;2023-03-03T13:21:53;94385.63;;;7.69;92.01
56052;BME280;41919;42.648;23.384;2023-03-03T13:27:00;94420.94;;;8.13;92.97
56052;BME280;41919;42.648;23.384;2023-03-03T13:29:36;94418.38;;;7.92;92.02
56052;BME280;41919;42.648;23.384;2023-03-03T13:35:01;94260.72;;;6.50;93.83
56052;BME280;41919;42.648;23.384;2023-03-03T13:40:12;94430.88;;;7.25;98.01
56052;BME280;41919;42.648;23.384;2023-03-03T13:42:51;94422.69;;;7.28;98.05
56052;BME280;41919;42.648;23.384;2023-03-03T13:50:29;94366.72;;;7.04;98.08
56052;BME280;41919;42.648;23.384;2023-03-03T13:53:41;94422.38;;;7.38;99.74
56052;BME280;41919;42.648;23.384;2023-03-03T13:59:02;94419.41;;;7.41;99.94
56052;BME280;41919;42.648;23.384;2023-03-03T14:07:20;94416.53;;;7.57;96.24
56052;BME280;41919;42.648;23.384;2023-03-03T14:10:05;94402.50;;;7.52;97.18
56052;BME280;41919;42.648;23.384;2023-03-03T14:12:47;94417.97;;;7.60;97.68
56052;BME280;41919;42.648;23.384;2023-03-03T14:20:42;94360.69;;;7.03;96.67
56052;BME280;41919;42.648;23.384;2023-03-03T14:23:19;94405.00;;;7.38;96.70
56052;BME280;41919;42.648;23.384;2023-03-03T14:28:45;94410.97;;;7.60;98.30
56052;BME280;41919;42.648;23.384;2023-03-03T14:31:25;94415.69;;;8.07;100.00
56052;BME280;41919;42.648;23.384;2023-03-03T14:34:00;94412.81;;;8.30;99.52
56052;BME280;41919;42.648;23.384;2023-03-03T14:36:35;94363.88;;;8.12;95.06
56052;BME280;41919;42.648;23.384;2023-03-03T14:39:35;94410.47;;;8.41;99.52
56052;BME280;41919;42.648;23.384;2023-03-03T14:42:12;94349.03;;;8.12;94.53
56052;BME280;41919;42.648;23.384;2023-03-03T14:49:37;94390.34;;;8.22;89.86
56052;BME280;41919;42.648;23.384;2023-03-03T14:54:38;94359.78;;;7.96;89.13
56052;BME280;41919;42.648;23.384;2023-03-03T14:59:35;94372.22;;;8.07;89.21
56052;BME280;41919;42.648;23.384;2023-03-03T15:04:42;94381.91;;;8.20;89.80
56052;BME280;41919;42.648;23.384;2023-03-03T15:07:37;94398.75;;;8.24;90.32
56052;BME280;41919;42.648;23.384;2023-03-03T15:10:05;94399.91;;;8.15;90.74
56052;BME280;41919;42.648;23.384;2023-03-03T15:17:40;94330.34;;;7.60;90.08
56052;BME280;41919;42.648;23.384;2023-03-03T15:20:29;94405.84;;;8.02;90.46
56052;BME280;41919;42.648;23.384;2023-03-03T15:23:26;94402.22;;;7.96;90.92
56052;BME280;41919;42.648;23.384;2023-03-03T15:26:20;94407.00;;;7.93;91.40
56052;BME280;41919;42.648;23.384;2023-03-03T15:42:26;94392.22;;;7.43;96.50
56052;BME280;41919;42.648;23.384;2023-03-03T15:50:56;94409.66;;;7.71;94.33
56052;BME280;41919;42.648;23.384;2023-03-03T15:56:18;94393.06;;;7.22;96.41
56052;BME280;41919;42.648;23.384;2023-03-03T15:58:56;94420.34;;;7.33;96.77
56052;BME280;41919;42.648;23.384;2023-03-03T16:01:33;94407.81;;;7.43;96.08
56052;BME280;41919;42.648;23.384;2023-03-03T16:04:04;94417.47;;;7.50;96.39
56052;BME280;41919;42.648;23.384;2023-03-03T16:09:36;94409.44;;;7.44;96.34
56052;BME280;41919;42.648;23.384;2023-03-03T16:28:22;94452.53;;;7.54;96.50
56052;BME280;41919;42.648;23.384;2023-03-03T16:31:05;94446.94;;;7.57;96.43
56052;BME280;41919;42.648;23.384;2023-03-03T16:33:49;94371.09;;;7.03;97.48
56052;BME280;41919;42.648;23.384;2023-03-03T17:08:07;94481.69;;;7.28;100.00
56052;BME280;41919;42.648;23.384;2023-03-03T17:16:15;94484.16;;;7.36;99.75
56052;BME280;41919;42.648;23.384;2023-03-03T17:19:24;94466.41;;;6.81;100.00
56052;BME280;41919;42.648;23.384;2023-03-03T17:30:16;94496.78;;;6.21;100.00
56052;BME280;41919;42.648;23.384;2023-03-03T17:32:57;94496.69;;;6.15;100.00
56052;BME280;41919;42.648;23.384;2023-03-03T17:41:12;94508.50;;;6.02;100.00
56052;BME280;41919;42.648;23.384;2023-03-03T17:43:45;94503.66;;;5.99;100.00
56052;BME280;41919;42.648;23.384;2023-03-03T17:55:32;94527.03;;;5.91;100.00
56052;BME280;41919;42.648;23.384;2023-03-03T18:10:19;94532.22;;;6.44;100.00
56052;BME280;41919;42.648;23.384;2023-03-03T18:18:59;94543.88;;;6.78;100.00